createdAt,value
2019-04-20T00:02:13.847Z,71.00
2019-04-20T00:04:37.010Z,71.00
2019-04-20T00:07:05.966Z,70.90
2019-04-20T00:09:37.979Z,71.00
2019-04-20T00:12:12.726Z,71.10
2019-04-20T00:14:37.199Z,71.50
2019-04-20T00:17:05.237Z,71.80
2019-04-20T00:19:40.776Z,72.60
2019-04-20T00:22:09.848Z,72.20
2019-04-20T00:24:39.339Z,72.30
2019-04-20T00:27:32.837Z,72.50
2019-04-20T00:29:58.682Z,72.50
2019-04-20T00:32:19.898Z,72.60
2019-04-20T00:34:44.147Z,72.70
2019-04-20T00:37:12.840Z,73.00
2019-04-20T00:39:44.766Z,73.10
2019-04-20T00:42:15.891Z,73.50
2019-04-20T00:44:45.820Z,74.10
2019-04-20T00:47:29.594Z,74.30
2019-04-20T00:49:57.682Z,74.40
2019-04-20T00:52:41.158Z,74.20
2019-04-20T00:54:45.261Z,74.40
2019-04-20T00:57:27.554Z,74.60
2019-04-20T01:00:05.799Z,74.70
2019-04-20T01:02:30.185Z,74.90
2019-04-20T01:05:04.401Z,75.00
2019-04-20T01:07:28.935Z,75.00
2019-04-20T01:09:47.898Z,75.10
2019-04-20T01:12:21.529Z,75.30
2019-04-20T01:14:52.107Z,75.20
2019-04-20T01:17:17.111Z,75.40
2019-04-20T01:19:48.905Z,75.40
2019-04-20T01:22:18.452Z,75.50
2019-04-20T01:24:48.274Z,75.70
2019-04-20T01:27:27.394Z,75.60
2019-04-20T01:29:51.613Z,75.60
2019-04-20T01:32:28.071Z,75.90
2019-04-20T01:34:55.310Z,75.80
2019-04-20T01:37:29.793Z,75.80
2019-04-20T01:39:50.823Z,75.90
2019-04-20T01:42:17.233Z,76.00
2019-04-20T01:44:49.221Z,75.90
2019-04-20T01:47:17.093Z,75.90
2019-04-20T01:49:47.780Z,76.00
2019-04-20T01:52:23.361Z,77.00
2019-04-20T01:55:12.901Z,76.60
2019-04-20T01:57:27.201Z,76.50
2019-04-20T02:00:01.801Z,76.90
2019-04-20T02:02:26.231Z,77.60
2019-04-20T02:05:06.121Z,77.80
2019-04-20T02:07:34.851Z,77.70
2019-04-20T02:10:02.822Z,77.80
2019-04-20T02:12:31.118Z,77.60
2019-04-20T02:15:02.293Z,77.80
2019-04-20T02:17:36.925Z,77.50
2019-04-20T02:20:19.851Z,77.30
2019-04-20T02:22:44.574Z,77.30
2019-04-20T02:24:57.866Z,77.20
2019-04-20T02:27:34.573Z,77.20
2019-04-20T02:30:23.855Z,76.80
2019-04-20T02:33:10.151Z,76.70
2019-04-20T02:35:40.445Z,76.70
2019-04-20T02:40:50.960Z,76.70
2019-04-20T02:43:09.422Z,76.60
2019-04-20T02:45:39.941Z,76.90
2019-04-20T02:48:13.478Z,76.80
2019-04-20T02:50:40.081Z,76.70
2019-04-20T02:58:25.460Z,77.40
2019-04-20T03:00:31.005Z,77.30
2019-04-20T03:02:48.911Z,77.40
2019-04-20T03:05:21.551Z,77.30
2019-04-20T03:07:58.628Z,77.60
2019-04-20T03:10:39.703Z,78.40
2019-04-20T03:13:05.346Z,78.20
2019-04-20T03:15:32.877Z,78.20
2019-04-20T03:18:03.562Z,78.30
2019-04-20T03:20:36.841Z,78.60
2019-04-20T03:23:19.680Z,78.40
2019-04-20T03:25:39.750Z,78.40
2019-04-20T03:28:07.015Z,78.60
2019-04-20T03:31:18.393Z,78.60
2019-04-20T03:35:41.815Z,78.70
2019-04-20T03:38:07.464Z,78.20
2019-04-20T03:40:29.395Z,78.00
2019-04-20T03:42:46.621Z,78.10
2019-04-20T03:45:19.294Z,77.90
2019-04-20T03:47:55.944Z,77.90
2019-04-20T03:50:39.397Z,77.60
2019-04-20T03:53:11.269Z,77.60
2019-04-20T03:55:35.585Z,77.50
2019-04-20T03:58:14.326Z,77.40
2019-04-20T04:00:43.305Z,77.30
2019-04-20T04:03:21.426Z,77.40
2019-04-20T04:05:42.033Z,77.40
2019-04-20T04:08:05.112Z,77.70
2019-04-20T04:10:40.961Z,77.80
2019-04-20T04:13:01.051Z,78.00
2019-04-20T04:15:29.664Z,78.20
2019-04-20T04:18:07.366Z,78.30
2019-04-20T04:20:38.775Z,78.80
2019-04-20T04:23:16.711Z,78.50
2019-04-20T04:25:40.527Z,78.60
2019-04-20T04:28:13.831Z,78.60
2019-04-20T04:30:40.477Z,78.70
2019-04-20T04:33:40.289Z,79.00
2019-04-20T04:35:48.202Z,78.80
2019-04-20T04:38:24.013Z,79.10
2019-04-20T04:40:56.677Z,79.10
2019-04-20T04:43:19.911Z,79.30
2019-04-20T04:45:32.260Z,79.30
2019-04-20T04:48:02.011Z,79.30
2019-04-20T04:50:31.850Z,79.20
2019-04-20T04:53:09.342Z,79.20
2019-04-20T04:55:41.740Z,79.10
2019-04-20T04:58:02.097Z,79.00
2019-04-20T05:00:33.163Z,78.90
2019-04-20T05:03:22.046Z,79.00
2019-04-20T05:05:57.215Z,78.70
2019-04-20T05:08:13.351Z,78.70
2019-04-20T05:10:34.920Z,78.50
2019-04-20T05:13:03.355Z,78.30
2019-04-20T05:15:46.115Z,78.30
2019-04-20T05:18:27.636Z,78.40
2019-04-20T05:20:54.654Z,78.50
2019-04-20T05:23:20.846Z,78.00
2019-04-20T05:26:03.751Z,77.90
2019-04-20T05:28:20.742Z,77.80
2019-04-20T05:31:03.537Z,77.90
2019-04-20T05:33:48.880Z,77.60
2019-04-20T05:36:19.277Z,77.00
2019-04-20T05:38:54.648Z,76.70
2019-04-20T05:41:17.021Z,76.70
2019-04-20T05:43:49.668Z,76.50
2019-04-20T05:46:22.385Z,76.00
2019-04-20T05:49:00.809Z,75.80
2019-04-20T05:51:29.431Z,75.40
2019-04-20T05:53:51.438Z,74.70
2019-04-20T05:56:31.691Z,74.80
2019-04-20T05:58:56.631Z,73.60
2019-04-20T06:01:29.934Z,69.10
2019-04-20T06:03:55.620Z,63.30
2019-04-20T06:06:29.202Z,59.90
2019-04-20T06:09:00.032Z,55.40
2019-04-20T06:11:28.391Z,53.60
2019-04-20T06:13:47.043Z,51.00
2019-04-20T06:16:30.570Z,50.00
2019-04-20T06:19:08.647Z,52.10
2019-04-20T06:21:52.981Z,54.60
2019-04-20T06:24:11.858Z,52.90
2019-04-20T06:28:58.244Z,56.90
2019-04-20T06:31:35.972Z,58.10
2019-04-20T06:36:47.500Z,54.00
2019-04-20T06:39:18.688Z,54.60
2019-04-20T06:42:02.003Z,52.50
2019-04-20T06:44:17.736Z,53.50
2019-04-20T06:46:46.727Z,52.70
2019-04-20T06:49:18.327Z,50.10
2019-04-20T06:51:47.368Z,47.80
2019-04-20T06:54:07.254Z,46.30
2019-04-20T06:56:48.993Z,48.90
2019-04-20T06:59:27.152Z,48.50
2019-04-20T07:01:57.054Z,49.50
2019-04-20T07:04:38.922Z,47.00
2019-04-20T07:06:56.291Z,45.00
2019-04-20T07:09:38.664Z,42.20
2019-04-20T07:11:50.469Z,46.10
2019-04-20T07:14:08.387Z,46.30
2019-04-20T07:16:57.380Z,47.70
2019-04-20T07:19:31.266Z,45.70
2019-04-20T07:22:10.530Z,46.10
2019-04-20T07:24:40.556Z,44.40
2019-04-20T07:27:01.706Z,42.50
2019-04-20T07:29:36.914Z,40.50
2019-04-20T07:31:58.875Z,42.60
2019-04-20T07:34:33.486Z,39.90
2019-04-20T07:37:33.049Z,37.90
2019-04-20T07:39:32.768Z,38.30
2019-04-20T07:42:08.934Z,43.20
2019-04-20T07:44:44.306Z,39.00
2019-04-20T07:47:13.948Z,41.30
2019-04-20T07:49:37.399Z,39.10
2019-04-20T07:51:47.756Z,40.80
2019-04-20T07:54:53.048Z,39.80
2019-04-20T07:57:03.519Z,37.20
2019-04-20T07:59:27.640Z,38.10
2019-04-20T08:02:16.186Z,38.70
2019-04-20T08:04:36.399Z,38.10
2019-04-20T08:07:00.583Z,37.60
2019-04-20T08:09:34.996Z,35.90
2019-04-20T08:12:18.888Z,39.20
2019-04-20T08:14:57.520Z,44.20
2019-04-20T08:17:31.431Z,46.10
2019-04-20T08:19:51.187Z,41.60
2019-04-20T08:22:27.062Z,40.60
2019-04-20T08:24:52.249Z,40.00
2019-04-20T08:27:12.382Z,39.00
2019-04-20T08:29:52.994Z,39.10
2019-04-20T08:32:31.212Z,40.70
2019-04-20T08:35:09.476Z,40.30
2019-04-20T08:37:32.079Z,39.00
2019-04-20T08:40:10.295Z,40.00
2019-04-20T08:42:40.474Z,43.80
2019-04-20T08:47:50.233Z,40.20
2019-04-20T08:50:09.495Z,37.10
2019-04-20T08:52:55.569Z,36.70
2019-04-20T08:55:05.377Z,39.00
2019-04-20T08:57:17.898Z,39.20
2019-04-20T08:59:48.226Z,42.20
2019-04-20T09:02:18.734Z,44.70
2019-04-20T09:04:55.245Z,45.70
2019-04-20T09:07:21.667Z,47.90
2019-04-20T09:10:12.967Z,47.90
2019-04-20T09:12:36.950Z,48.90
2019-04-20T09:14:48.795Z,49.00
2019-04-20T09:17:29.926Z,48.40
2019-04-20T09:19:55.853Z,49.50
2019-04-20T09:22:34.041Z,49.10
2019-04-20T09:25:25.053Z,47.20
2019-04-20T09:27:33.631Z,48.10
2019-04-20T09:30:11.987Z,47.60
2019-04-20T09:32:40.255Z,49.10
2019-04-20T09:35:13.684Z,48.80
2019-04-20T09:37:45.824Z,48.20
2019-04-20T09:40:18.637Z,48.40
2019-04-20T09:42:29.720Z,50.00
2019-04-20T09:45:02.504Z,49.60
2019-04-20T09:47:36.829Z,48.70
2019-04-20T09:50:18.841Z,49.30
2019-04-20T09:52:47.754Z,49.00
2019-04-20T09:55:10.314Z,47.80
2019-04-20T09:57:43.815Z,46.90
2019-04-20T10:00:16.850Z,47.20
2019-04-20T10:02:32.996Z,46.30
2019-04-20T10:05:00.048Z,45.90
2019-04-20T10:07:32.517Z,47.10
2019-04-20T10:09:59.953Z,46.70
2019-04-20T10:12:29.346Z,46.20
2019-04-20T10:15:06.536Z,46.70
2019-04-20T10:17:30.481Z,45.10
2019-04-20T10:20:02.539Z,44.00
2019-04-20T10:22:28.769Z,46.20
2019-04-20T10:24:57.688Z,44.70
2019-04-20T10:27:26.462Z,46.00
2019-04-20T10:29:55.632Z,46.70
2019-04-20T10:32:31.101Z,45.80
2019-04-20T10:34:54.898Z,45.80
2019-04-20T10:37:25.095Z,46.40
2019-04-20T10:39:54.393Z,43.10
2019-04-20T10:42:23.881Z,44.80
2019-04-20T10:44:56.743Z,45.80
2019-04-20T10:47:23.102Z,45.50
2019-04-20T10:49:51.676Z,43.10
2019-04-20T10:52:20.196Z,42.90
2019-04-20T10:54:52.271Z,44.30
2019-04-20T10:57:21.607Z,44.30
2019-04-20T10:59:50.216Z,42.70
2019-04-20T11:02:19.515Z,41.90
2019-04-20T11:04:48.529Z,40.50
2019-04-20T11:07:20.680Z,43.30
2019-04-20T11:10:02.542Z,41.00
2019-04-20T11:12:20.152Z,40.40
2019-04-20T11:14:50.132Z,40.90
2019-04-20T11:17:18.782Z,40.10
2019-04-20T11:19:47.590Z,39.40
2019-04-20T11:22:16.684Z,39.90
2019-04-20T11:24:46.115Z,40.10
2019-04-20T11:27:14.672Z,39.70
2019-04-20T11:29:44.382Z,40.70
2019-04-20T11:32:14.186Z,37.10
2019-04-20T11:34:44.198Z,36.70
2019-04-20T11:37:13.081Z,37.20
2019-04-20T11:39:41.564Z,38.90
2019-04-20T11:42:10.119Z,35.20
2019-04-20T11:44:38.652Z,35.20
2019-04-20T11:47:08.357Z,34.00
2019-04-20T11:49:37.539Z,35.60
2019-04-20T11:52:06.145Z,36.60
2019-04-20T11:54:34.612Z,34.00
2019-04-20T11:57:04.690Z,35.10
2019-04-20T11:59:33.252Z,34.30
2019-04-20T12:02:05.562Z,32.20
2019-04-20T12:04:42.258Z,33.40
2019-04-20T12:07:06.735Z,34.00
2019-04-20T12:09:35.842Z,36.60
2019-04-20T12:12:15.628Z,34.90
2019-04-20T12:14:34.747Z,32.10
2019-04-20T12:17:05.896Z,32.90
2019-04-20T12:19:36.206Z,31.50
2019-04-20T12:22:05.606Z,31.90
2019-04-20T12:24:34.216Z,32.00
2019-04-20T12:27:06.869Z,33.10
2019-04-20T12:29:35.607Z,32.60
2019-04-20T12:32:06.912Z,33.20
2019-04-20T12:34:34.990Z,32.10
2019-04-20T12:37:05.030Z,32.30
2019-04-20T12:39:33.568Z,33.80
2019-04-20T12:42:04.713Z,32.10
2019-04-20T12:44:32.285Z,34.30
2019-04-20T12:47:05.776Z,33.80
2019-04-20T12:49:35.682Z,32.80
2019-04-20T12:52:06.453Z,32.20
2019-04-20T12:54:34.692Z,32.50
2019-04-20T12:57:06.732Z,32.90
2019-04-20T12:59:35.771Z,32.00
2019-04-20T13:02:05.193Z,32.10
2019-04-20T13:04:35.216Z,32.10
2019-04-20T13:07:05.901Z,32.10
2019-04-20T13:09:38.809Z,31.50
2019-04-20T13:12:12.012Z,32.00
2019-04-20T13:14:44.376Z,32.00
2019-04-20T13:17:14.454Z,31.30
2019-04-20T13:19:43.145Z,31.40
2019-04-20T13:22:12.825Z,31.20
2019-04-20T13:24:43.053Z,31.20
2019-04-20T13:27:14.389Z,30.40
2019-04-20T13:29:46.077Z,33.00
2019-04-20T13:32:13.921Z,32.70
2019-04-20T13:34:42.488Z,33.00
2019-04-20T13:37:11.518Z,32.00
2019-04-20T13:39:40.770Z,31.20
2019-04-20T13:42:15.853Z,31.90
2019-04-20T13:44:41.087Z,31.10
2019-04-20T13:47:09.602Z,31.30
2019-04-20T13:49:38.874Z,30.40
2019-04-20T13:52:08.657Z,32.00
2019-04-20T13:54:37.957Z,31.60
2019-04-20T13:57:08.397Z,31.30
2019-04-20T13:59:39.629Z,30.10
2019-04-20T14:02:10.806Z,29.60
2019-04-20T14:04:41.136Z,31.10
2019-04-20T14:07:12.536Z,32.00
2019-04-20T14:09:41.454Z,30.10
2019-04-20T14:12:16.734Z,30.10
2019-04-20T14:14:41.364Z,31.20
2019-04-20T14:17:10.765Z,29.30
2019-04-20T14:19:39.497Z,29.90
2019-04-20T14:22:08.292Z,30.70
2019-04-20T14:24:37.237Z,30.20
2019-04-20T14:27:06.591Z,30.50
2019-04-20T14:29:35.119Z,31.60
2019-04-20T14:32:05.354Z,31.90
2019-04-20T14:34:35.112Z,30.50
2019-04-20T14:37:04.787Z,30.40
2019-04-20T14:39:34.215Z,30.90
2019-04-20T14:42:02.726Z,30.00
2019-04-20T14:44:32.054Z,30.20
2019-04-20T14:47:05.653Z,30.00
2019-04-20T14:49:34.607Z,30.30
2019-04-20T14:52:04.393Z,30.50
2019-04-20T14:54:33.328Z,30.90
2019-04-20T14:57:07.781Z,30.40
2019-04-20T14:59:37.919Z,30.00
2019-04-20T15:02:08.549Z,30.10
2019-04-20T15:04:37.164Z,30.10
2019-04-20T15:07:06.649Z,31.40
2019-04-20T15:09:38.442Z,29.90
2019-04-20T15:12:08.776Z,30.40
2019-04-20T15:14:38.560Z,30.40
2019-04-20T15:17:08.957Z,31.80
2019-04-20T15:19:39.229Z,30.70
2019-04-20T15:22:09.492Z,31.60
2019-04-20T15:24:38.052Z,32.30
2019-04-20T15:27:06.769Z,31.20
2019-04-20T15:29:36.074Z,31.40
2019-04-20T15:32:05.953Z,31.60
2019-04-20T15:34:35.070Z,32.10
2019-04-20T15:37:04.386Z,31.10
2019-04-20T15:39:34.896Z,30.50
2019-04-20T15:42:03.508Z,31.60
2019-04-20T15:44:33.331Z,32.00
2019-04-20T15:47:07.031Z,32.20
2019-04-20T15:49:35.958Z,32.10
2019-04-20T15:52:05.803Z,31.40
2019-04-20T15:54:35.606Z,32.00
2019-04-20T15:57:14.212Z,31.90
2019-04-20T15:59:35.683Z,32.60
2019-04-20T16:02:07.186Z,32.20
2019-04-20T16:04:41.147Z,33.50
2019-04-20T16:07:08.528Z,33.40
2019-04-20T16:09:37.891Z,33.00
2019-04-20T16:12:06.877Z,32.80
2019-04-20T16:14:35.525Z,33.10
2019-04-20T16:17:06.842Z,33.90
2019-04-20T16:19:45.187Z,34.80
2019-04-20T16:22:05.833Z,36.50
2019-04-20T16:24:37.506Z,38.30
2019-04-20T16:27:07.868Z,38.80
2019-04-20T16:29:37.779Z,39.20
2019-04-20T16:32:06.719Z,39.60
2019-04-20T16:34:36.798Z,38.00
2019-04-20T16:37:06.414Z,38.00
2019-04-20T16:39:36.488Z,39.20
2019-04-20T16:42:06.576Z,39.50
2019-04-20T16:44:35.539Z,40.40
2019-04-20T16:47:04.176Z,40.70
2019-04-20T16:49:32.839Z,40.50
2019-04-20T16:52:01.364Z,41.00
2019-04-20T16:54:30.148Z,41.60
2019-04-20T16:57:02.810Z,42.00
2019-04-20T16:59:33.562Z,41.90
2019-04-20T17:02:02.459Z,42.00
2019-04-20T17:04:33.417Z,42.50
2019-04-20T17:07:03.141Z,43.00
2019-04-20T17:09:31.960Z,43.40
2019-04-20T17:12:01.598Z,43.30
2019-04-20T17:14:31.687Z,43.70
2019-04-20T17:17:04.181Z,44.00
2019-04-20T17:19:33.553Z,44.20
2019-04-20T17:22:03.454Z,45.10
2019-04-20T17:24:33.543Z,44.50
2019-04-20T17:27:06.427Z,44.80
2019-04-20T17:29:39.151Z,44.60
2019-04-20T17:32:09.734Z,44.60
2019-04-20T17:34:55.835Z,44.80
2019-04-20T17:37:08.875Z,45.50
2019-04-20T17:40:01.651Z,45.30
2019-04-20T17:42:25.159Z,45.80
2019-04-20T17:44:50.266Z,46.60
2019-04-20T17:47:26.413Z,46.30
2019-04-20T17:49:58.916Z,46.80
2019-04-20T17:52:28.455Z,47.00
2019-04-20T17:54:43.198Z,47.10
2019-04-20T17:57:13.081Z,47.40
2019-04-20T17:59:45.368Z,47.90
2019-04-20T18:02:23.848Z,47.90
2019-04-20T18:05:12.647Z,48.00
2019-04-20T18:07:40.925Z,48.20
2019-04-20T18:10:06.731Z,48.40
2019-04-20T18:12:26.747Z,48.50
2019-04-20T18:15:06.181Z,48.50
2019-04-20T18:17:32.122Z,48.90
2019-04-20T18:19:52.312Z,49.10
2019-04-20T18:22:21.523Z,49.60
2019-04-20T18:25:17.023Z,49.60
2019-04-20T18:27:37.413Z,49.80
2019-04-20T18:30:06.861Z,50.10
2019-04-20T18:32:23.248Z,50.10
2019-04-20T18:34:56.339Z,50.70
2019-04-20T18:37:25.122Z,51.00
2019-04-20T18:40:00.819Z,51.30
2019-04-20T18:42:30.335Z,51.60
2019-04-20T18:45:16.026Z,51.40
2019-04-20T18:47:47.666Z,51.90
2019-04-20T18:50:03.163Z,51.70
2019-04-20T18:52:25.213Z,51.80
2019-04-20T18:54:55.490Z,52.10
2019-04-20T18:57:28.667Z,52.30
2019-04-20T18:59:56.432Z,52.30
2019-04-20T19:02:29.337Z,52.70
2019-04-20T19:04:56.969Z,52.30
2019-04-20T19:07:25.818Z,52.40
2019-04-20T19:10:05.760Z,52.60
2019-04-20T19:12:34.004Z,52.80
2019-04-20T19:15:12.064Z,53.40
2019-04-20T19:17:45.066Z,53.30
2019-04-20T19:20:03.614Z,54.10
2019-04-20T19:22:32.209Z,54.90
2019-04-20T19:25:02.172Z,54.50
2019-04-20T19:27:39.976Z,55.10
2019-04-20T19:30:14.843Z,55.00
2019-04-20T19:32:45.051Z,55.10
2019-04-20T19:35:15.066Z,55.30
2019-04-20T19:37:40.679Z,55.00
2019-04-20T19:40:10.804Z,55.20
2019-04-20T19:42:45.481Z,55.00
2019-04-20T19:45:30.139Z,54.80
2019-04-20T19:47:51.869Z,55.20
2019-04-20T19:50:31.272Z,55.20
2019-04-20T19:53:05.753Z,55.50
2019-04-20T19:55:25.664Z,55.50
2019-04-20T19:57:57.558Z,54.50
2019-04-20T20:00:10.154Z,54.50
2019-04-20T20:02:39.596Z,53.90
2019-04-20T20:05:12.151Z,53.60
2019-04-20T20:07:43.766Z,54.10
2019-04-20T20:10:10.905Z,54.10
2019-04-20T20:12:45.143Z,54.50
2019-04-20T20:15:15.828Z,53.60
2019-04-20T20:18:03.617Z,52.80
2019-04-20T20:20:30.690Z,52.20
2019-04-20T20:22:45.123Z,52.60
2019-04-20T20:25:14.894Z,52.90
2019-04-20T20:27:51.226Z,52.30
2019-04-20T20:30:23.116Z,52.70
2019-04-20T20:33:01.075Z,52.00
2019-04-20T20:35:22.067Z,51.80
2019-04-20T20:37:50.267Z,51.40
2019-04-20T20:40:24.863Z,51.60
2019-04-20T20:42:58.061Z,52.00
2019-04-20T20:45:26.248Z,51.80
2019-04-20T20:48:03.874Z,52.10
2019-04-20T20:50:37.965Z,52.30
2019-04-20T20:53:02.443Z,52.30
2019-04-20T20:55:29.669Z,53.20
2019-04-20T20:57:59.272Z,53.50
2019-04-20T21:00:32.069Z,54.00
2019-04-20T21:02:58.166Z,54.30
2019-04-20T21:05:19.779Z,54.50
2019-04-20T21:07:51.110Z,55.00
2019-04-20T21:10:25.937Z,55.50
2019-04-20T21:12:54.096Z,55.60
2019-04-20T21:15:22.571Z,56.00
2019-04-20T21:18:17.411Z,56.00
2019-04-20T21:20:40.656Z,56.20
2019-04-20T21:23:06.956Z,57.00
2019-04-20T21:25:27.644Z,57.20
2019-04-20T21:27:52.899Z,57.20
2019-04-20T21:30:28.198Z,57.30
2019-04-20T21:32:54.216Z,57.80
2019-04-20T21:35:21.904Z,57.90
2019-04-20T21:37:56.972Z,58.80
2019-04-20T21:40:27.851Z,58.60
2019-04-20T21:42:58.163Z,59.10
2019-04-20T21:45:25.593Z,58.90
2019-04-20T21:47:52.603Z,59.20
2019-04-20T21:50:34.949Z,59.20
2019-04-20T21:52:55.102Z,58.80
2019-04-20T21:55:21.906Z,58.90
2019-04-20T21:57:53.943Z,58.40
2019-04-20T22:00:31.889Z,58.50
2019-04-20T22:02:57.578Z,58.60
2019-04-20T22:05:23.309Z,58.70
2019-04-20T22:07:52.552Z,59.20
2019-04-20T22:10:24.626Z,59.90
2019-04-20T22:12:58.693Z,60.40
2019-04-20T22:15:27.140Z,60.60
2019-04-20T22:17:52.613Z,60.60
2019-04-20T22:20:29.760Z,61.10
2019-04-20T22:23:03.079Z,60.40
2019-04-20T22:25:37.385Z,61.10
2019-04-20T22:27:51.876Z,61.00
2019-04-20T22:30:21.833Z,60.60
2019-04-20T22:32:53.630Z,60.80
2019-04-20T22:35:22.777Z,60.50
2019-04-20T22:38:01.158Z,60.80
2019-04-20T22:40:28.053Z,61.00
2019-04-20T22:42:57.807Z,60.90
2019-04-20T22:45:23.834Z,61.20
2019-04-20T22:48:01.160Z,61.10
2019-04-20T22:50:38.345Z,61.40
2019-04-20T22:53:12.348Z,62.00
2019-04-20T22:55:48.815Z,62.40
2019-04-20T22:58:04.536Z,62.00
2019-04-20T23:00:36.424Z,62.10
2019-04-20T23:02:54.964Z,61.90
2019-04-20T23:05:24.665Z,61.70
2019-04-20T23:07:53.248Z,61.90
2019-04-20T23:10:27.881Z,61.70
2019-04-20T23:12:56.189Z,61.50
2019-04-20T23:15:22.605Z,61.50
2019-04-20T23:17:53.610Z,62.00
2019-04-20T23:20:26.684Z,62.50
2019-04-20T23:22:52.944Z,62.80
2019-04-20T23:25:22.866Z,63.30
2019-04-20T23:28:00.323Z,63.30
2019-04-20T23:30:26.046Z,63.30
2019-04-20T23:32:52.048Z,63.20
2019-04-20T23:35:23.456Z,63.30
2019-04-20T23:37:50.829Z,63.80
2019-04-20T23:40:19.664Z,64.10
2019-04-20T23:42:49.864Z,64.60
2019-04-20T23:45:27.007Z,64.30
2019-04-20T23:47:55.688Z,64.50
2019-04-20T23:50:43.581Z,65.10
2019-04-20T23:53:12.142Z,65.40
2019-04-20T23:55:23.774Z,66.20
2019-04-20T23:57:58.102Z,66.90
